This is the latest recevied weather packets stored in our database for station/object N8TWM-13. If no packets are shown the sender has not sent any weather packets the latest 1 day(s).
| Time | Temp. | Humidity | Pressure | Rain* | Wind** | Luminosity | Snow |
|---|---|---|---|---|---|---|---|
| 1778058396 | 6.67° C | 97% | 1008.5 hPa | 1.78 mm | 1.34 m/s, 5° | 0 W/m² | - |
| 1778058092 | 6.67° C | 97% | 1008.8 hPa | 0 mm | 0.89 m/s, 270° | 0 W/m² | - |
| 1778057789 | 6.67° C | 97% | 1008.6 hPa | 1.27 mm | 0.45 m/s, 335° | 0 W/m² | - |
| 1778057485 | 6.67° C | 97% | 1008.6 hPa | 1.27 mm | 0.89 m/s, 312° | 0 W/m² | - |
| 1778057182 | 6.67° C | 97% | 1008.6 hPa | 1.78 mm | 0.45 m/s, 261° | 0 W/m² | - |
| 1778056879 | 6.67° C | 97% | 1008.6 hPa | 1.78 mm | 0.89 m/s, 286° | 0 W/m² | - |
| 1778056576 | 6.67° C | 97% | 1008.5 hPa | 0 mm | 0.45 m/s, 267° | 0 W/m² | - |
| 1778056273 | 6.67° C | 97% | 1008.6 hPa | 0 mm | 0.45 m/s, 323° | 0 W/m² | - |
| 1778055970 | 6.67° C | 97% | 1008.1 hPa | 1.27 mm | 1.34 m/s, 3° | 0 W/m² | - |
| 1778055665 | 6.67° C | 97% | 1008.3 hPa | 1.27 mm | 0.89 m/s, 276° | 0 W/m² | - |
| 1778055364 | 6.67° C | 97% | 1008.3 hPa | 0 mm | 0 m/s | 0 W/m² | - |
| 1778055061 | 6.67° C | 97% | 1008 hPa | 0 mm | 0 m/s | 0 W/m² | - |
| 1778054759 | 6.67° C | 97% | 1008.1 hPa | 0 mm | 0.45 m/s, 295° | 0 W/m² | - |
| 1778054455 | 6.67° C | 97% | 1008.1 hPa | 0 mm | 0.89 m/s, 41° | 0 W/m² | - |
| 1778054153 | 6.67° C | 97% | 1008.4 hPa | 1.78 mm | 0.89 m/s, 326° | 0 W/m² | - |
| 1778053849 | 6.67° C | 97% | 1008.4 hPa | 1.78 mm | 0.45 m/s, 24° | 0 W/m² | - |
| 1778053547 | 6.67° C | 97% | 1008.1 hPa | 1.78 mm | 0 m/s | 0 W/m² | - |
| 1778053244 | 6.67° C | 97% | 1008.6 hPa | 3.05 mm | 0 m/s | 0 W/m² | - |
| 1778052942 | 6.67° C | 97% | 1008.6 hPa | 1.27 mm | 0.45 m/s, 268° | 0 W/m² | - |
| 1778052639 | 6.67° C | 97% | 1008.5 hPa | 1.78 mm | 1.79 m/s, 39° | 0 W/m² | - |
| 1778052336 | 6.67° C | 97% | 1008.6 hPa | 3.05 mm | 0.45 m/s, 285° | 0 W/m² | - |
| 1778052034 | 6.67° C | 97% | 1008.3 hPa | 3.05 mm | 1.34 m/s, 7° | 0 W/m² | - |
| 1778051731 | 6.67° C | 97% | 1008 hPa | 3.05 mm | 1.34 m/s, 27° | 0 W/m² | - |
| 1778051428 | 6.67° C | 97% | 1007.9 hPa | 1.27 mm | 1.79 m/s, 64° | 0 W/m² | - |
| 1778051126 | 6.67° C | 97% | 1008.1 hPa | 3.05 mm | 0.45 m/s, 288° | 0 W/m² | - |
* Rain latest hour (hover to see other rain measurements)
** Current wind speed in m/s (hover to see current wind gust speed)